createdAt,value
2022-07-29T00:01:04.212Z,20.19
2022-07-29T00:03:30.993Z,20.16
2022-07-29T00:05:57.484Z,20.01
2022-07-29T00:08:23.910Z,19.89
2022-07-29T00:10:51.735Z,19.79
2022-07-29T00:13:18.179Z,19.63
2022-07-29T00:15:58.405Z,19.55
2022-07-29T00:18:31.033Z,19.56
2022-07-29T00:20:57.632Z,19.26
2022-07-29T00:23:24.023Z,19.28
2022-07-29T00:25:50.450Z,19.27
2022-07-29T00:28:16.850Z,19.38
2022-07-29T00:30:44.271Z,19.35
2022-07-29T00:33:10.994Z,19.04
2022-07-29T00:35:46.895Z,19.02
2022-07-29T00:38:15.490Z,19.03
2022-07-29T00:40:43.948Z,18.99
2022-07-29T00:43:11.775Z,19.06
2022-07-29T00:45:38.428Z,18.98
2022-07-29T00:48:05.766Z,19.07
2022-07-29T00:50:33.364Z,18.98
2022-07-29T00:53:00.169Z,18.98
2022-07-29T00:55:26.651Z,18.96
2022-07-29T00:57:53.717Z,18.86
2022-07-29T01:00:23.297Z,18.88
2022-07-29T01:02:50.029Z,18.80
2022-07-29T01:05:19.321Z,18.71
2022-07-29T01:07:47.499Z,18.65
2022-07-29T01:10:15.555Z,18.41
2022-07-29T01:12:44.339Z,18.47
2022-07-29T01:15:11.172Z,18.38
2022-07-29T01:17:57.784Z,18.45
2022-07-29T01:21:01.644Z,18.33
2022-07-29T01:23:53.079Z,18.39
2022-07-29T01:26:32.591Z,18.37
2022-07-29T01:29:13.566Z,18.33
2022-07-29T01:31:59.021Z,18.29
2022-07-29T01:34:36.333Z,18.40
2022-07-29T01:37:22.181Z,18.38
2022-07-29T01:39:50.954Z,18.34
2022-07-29T01:42:42.947Z,18.30
2022-07-29T01:45:16.561Z,18.36
2022-07-29T01:47:47.532Z,18.33
2022-07-29T01:50:18.386Z,18.28
2022-07-29T01:52:50.457Z,18.23
2022-07-29T01:55:20.995Z,18.11
2022-07-29T01:57:48.999Z,18.10
2022-07-29T02:00:16.877Z,18.21
2022-07-29T02:02:45.114Z,18.21
2022-07-29T02:05:15.042Z,18.15
2022-07-29T02:07:43.808Z,18.08
2022-07-29T02:10:13.152Z,18.09
2022-07-29T02:12:41.603Z,18.04
2022-07-29T02:15:08.926Z,18.03
2022-07-29T02:18:00.771Z,17.93
2022-07-29T02:20:28.713Z,17.98
2022-07-29T02:22:56.562Z,17.80
2022-07-29T02:25:25.237Z,17.81
2022-07-29T02:28:05.575Z,17.76
2022-07-29T02:30:33.555Z,17.74
2022-07-29T02:33:01.315Z,17.71
2022-07-29T02:35:28.206Z,17.80
2022-07-29T02:38:22.402Z,17.72
2022-07-29T02:40:51.409Z,17.60
2022-07-29T02:43:20.057Z,17.62
2022-07-29T02:45:52.089Z,17.58
2022-07-29T02:48:22.639Z,17.62
2022-07-29T02:51:00.601Z,17.48
2022-07-29T02:53:27.937Z,17.41
2022-07-29T02:56:01.458Z,17.21
2022-07-29T02:58:30.877Z,17.40
2022-07-29T03:01:22.540Z,17.32
2022-07-29T03:03:51.771Z,17.31
2022-07-29T03:06:28.297Z,17.41
2022-07-29T03:09:09.134Z,17.30
2022-07-29T03:11:46.091Z,17.16
2022-07-29T03:14:17.614Z,17.14
2022-07-29T03:16:44.702Z,17.21
2022-07-29T03:19:11.619Z,17.22
2022-07-29T03:21:38.014Z,17.22
2022-07-29T03:24:09.768Z,17.13
2022-07-29T03:26:36.890Z,17.23
2022-07-29T03:29:03.339Z,17.13
2022-07-29T03:31:29.833Z,17.05
2022-07-29T03:33:56.311Z,17.04
2022-07-29T03:36:22.731Z,17.01
2022-07-29T03:38:50.163Z,17.07
2022-07-29T03:41:19.087Z,17.15
2022-07-29T03:43:52.588Z,17.18
2022-07-29T03:46:23.523Z,17.19
2022-07-29T03:48:53.831Z,17.03
2022-07-29T03:51:33.852Z,16.92
2022-07-29T03:54:06.387Z,17.00
2022-07-29T03:56:40.492Z,16.95
2022-07-29T03:59:08.108Z,16.78
2022-07-29T04:01:35.708Z,16.72
2022-07-29T04:04:02.866Z,16.77
2022-07-29T04:06:29.382Z,16.81
2022-07-29T04:08:55.799Z,16.84
2022-07-29T04:11:22.239Z,16.88
2022-07-29T04:13:48.666Z,16.81
2022-07-29T04:16:15.169Z,16.92
2022-07-29T04:18:41.687Z,16.94
2022-07-29T04:21:08.087Z,16.84
2022-07-29T04:23:34.574Z,16.89
2022-07-29T04:26:02.008Z,16.88
2022-07-29T04:28:28.397Z,16.79
2022-07-29T04:30:54.941Z,16.81
2022-07-29T04:33:21.381Z,16.76
2022-07-29T04:35:52.698Z,16.80
2022-07-29T04:38:22.112Z,16.59
2022-07-29T04:40:49.609Z,16.62
2022-07-29T04:43:16.625Z,16.60
2022-07-29T04:45:49.182Z,16.64
2022-07-29T04:48:15.575Z,16.64
2022-07-29T04:50:41.990Z,16.63
2022-07-29T04:53:08.830Z,16.75
2022-07-29T04:55:35.337Z,16.83
2022-07-29T04:58:05.390Z,16.81
2022-07-29T05:00:33.254Z,16.78
2022-07-29T05:03:00.536Z,16.79
2022-07-29T05:05:27.012Z,16.75
2022-07-29T05:07:53.582Z,16.86
2022-07-29T05:10:19.961Z,16.83
2022-07-29T05:12:46.381Z,16.84
2022-07-29T05:15:13.680Z,17.00
2022-07-29T05:17:40.105Z,16.79
2022-07-29T05:20:07.266Z,16.96
2022-07-29T05:22:33.846Z,16.92
2022-07-29T05:25:02.276Z,16.98
2022-07-29T05:27:32.091Z,17.09
2022-07-29T05:29:58.666Z,17.13
2022-07-29T05:32:25.297Z,17.07
2022-07-29T05:34:51.958Z,17.15
2022-07-29T05:37:20.219Z,17.31
2022-07-29T05:39:50.543Z,17.31
2022-07-29T05:42:22.590Z,17.26
2022-07-29T05:44:49.107Z,17.35
2022-07-29T05:47:15.546Z,17.42
2022-07-29T05:49:41.968Z,17.49
2022-07-29T05:52:08.393Z,17.56
2022-07-29T05:54:35.702Z,17.62
2022-07-29T05:57:02.239Z,17.55
2022-07-29T05:59:30.659Z,17.67
2022-07-29T06:01:58.326Z,17.73
2022-07-29T06:04:25.162Z,17.85
2022-07-29T06:06:51.623Z,17.99
2022-07-29T06:09:18.056Z,18.06
2022-07-29T06:11:44.435Z,18.15
2022-07-29T06:14:10.865Z,18.14
2022-07-29T06:16:37.374Z,18.19
2022-07-29T06:19:03.871Z,18.21
2022-07-29T06:21:30.275Z,18.21
2022-07-29T06:23:56.711Z,18.28
2022-07-29T06:26:30.675Z,18.25
2022-07-29T06:28:58.082Z,18.37
2022-07-29T06:31:24.558Z,18.38
2022-07-29T06:33:51.081Z,18.38
2022-07-29T06:36:17.653Z,18.36
2022-07-29T06:38:49.465Z,18.38
2022-07-29T06:41:18.430Z,18.47
2022-07-29T06:43:51.706Z,18.57
2022-07-29T06:46:21.717Z,18.64
2022-07-29T06:48:51.343Z,18.63
2022-07-29T06:51:22.521Z,18.68
2022-07-29T06:53:59.397Z,18.78
2022-07-29T06:56:29.095Z,18.83
2022-07-29T06:58:55.563Z,18.92
2022-07-29T07:01:22.138Z,18.92
2022-07-29T07:03:49.060Z,19.02
2022-07-29T07:06:15.644Z,19.03
2022-07-29T07:08:42.042Z,19.11
2022-07-29T07:11:09.046Z,19.15
2022-07-29T07:13:36.645Z,19.22
2022-07-29T07:16:03.972Z,19.32
2022-07-29T07:18:30.555Z,19.24
2022-07-29T07:20:57.803Z,19.27
2022-07-29T07:23:24.588Z,19.24
2022-07-29T07:25:51.151Z,19.25
2022-07-29T07:28:17.579Z,19.28
2022-07-29T07:30:44.474Z,19.36
2022-07-29T07:33:11.543Z,19.47
2022-07-29T07:35:37.955Z,19.59
2022-07-29T07:38:04.449Z,19.71
2022-07-29T07:40:30.916Z,19.83
2022-07-29T07:42:57.632Z,19.95
2022-07-29T07:45:24.636Z,19.99
2022-07-29T07:47:51.067Z,20.05
2022-07-29T07:50:19.189Z,20.09
2022-07-29T07:52:55.813Z,20.10
2022-07-29T07:55:22.397Z,20.10
2022-07-29T07:57:48.805Z,20.15
2022-07-29T08:00:16.800Z,20.13
2022-07-29T08:02:44.020Z,20.23
2022-07-29T08:05:12.721Z,20.27
2022-07-29T08:07:39.618Z,20.33
2022-07-29T08:10:06.551Z,20.44
2022-07-29T08:12:33.054Z,20.47
2022-07-29T08:14:59.595Z,20.50
2022-07-29T08:17:26.218Z,20.51
2022-07-29T08:19:52.618Z,20.54
2022-07-29T08:22:19.094Z,20.55
2022-07-29T08:24:47.165Z,20.63
2022-07-29T08:27:40.793Z,20.69
2022-07-29T08:30:01.234Z,20.73
2022-07-29T08:32:51.982Z,20.86
2022-07-29T08:35:15.734Z,20.98
2022-07-29T08:37:42.825Z,21.05
2022-07-29T08:40:09.641Z,21.18
2022-07-29T08:42:36.505Z,21.24
2022-07-29T08:45:04.401Z,21.27
2022-07-29T08:47:30.876Z,21.27
2022-07-29T08:49:57.345Z,21.30
2022-07-29T08:52:29.767Z,21.30
2022-07-29T08:54:56.382Z,21.42
2022-07-29T08:57:23.329Z,21.47
2022-07-29T08:59:53.338Z,21.59
2022-07-29T09:02:21.506Z,21.68
2022-07-29T09:04:48.603Z,21.73
2022-07-29T09:07:19.803Z,21.76
2022-07-29T09:09:46.574Z,21.84
2022-07-29T09:12:13.548Z,21.84
2022-07-29T09:14:56.050Z,21.83
2022-07-29T09:17:41.377Z,21.86
2022-07-29T09:20:19.230Z,21.86
2022-07-29T09:22:49.994Z,21.94
2022-07-29T09:25:33.604Z,21.92
2022-07-29T09:28:17.349Z,22.01
2022-07-29T09:30:59.116Z,22.26
2022-07-29T09:33:33.886Z,22.31
2022-07-29T09:36:08.813Z,22.32
2022-07-29T09:38:36.285Z,22.42
2022-07-29T09:41:06.233Z,22.49
2022-07-29T09:43:33.842Z,22.57
2022-07-29T09:46:13.716Z,22.53
2022-07-29T09:48:40.494Z,22.65
2022-07-29T09:51:20.597Z,22.86
2022-07-29T09:53:47.963Z,22.92
2022-07-29T09:56:15.177Z,22.99
2022-07-29T09:58:41.581Z,23.16
2022-07-29T10:01:08.019Z,23.30
2022-07-29T10:03:51.687Z,23.22
2022-07-29T10:06:18.184Z,23.27
2022-07-29T10:08:44.616Z,23.24
2022-07-29T10:11:13.804Z,23.15
2022-07-29T10:13:41.463Z,23.09
2022-07-29T10:16:08.388Z,23.15
2022-07-29T10:18:34.964Z,23.30
2022-07-29T10:21:02.174Z,23.30
2022-07-29T10:23:30.216Z,23.39
2022-07-29T10:26:13.469Z,23.61
2022-07-29T10:28:39.981Z,23.72
2022-07-29T10:31:08.949Z,23.88
2022-07-29T10:34:03.867Z,23.93
2022-07-29T10:36:53.911Z,24.12
2022-07-29T10:39:44.765Z,24.36
2022-07-29T10:45:12.151Z,24.66
2022-07-29T10:47:38.766Z,24.56
2022-07-29T10:50:07.069Z,24.40
2022-07-29T10:52:53.603Z,24.26
2022-07-29T10:55:43.806Z,24.13
2022-07-29T10:58:17.994Z,24.14
2022-07-29T11:00:50.357Z,24.48
2022-07-29T11:03:41.636Z,24.58
2022-07-29T11:06:17.066Z,24.81
2022-07-29T11:08:44.652Z,24.72
2022-07-29T11:11:29.555Z,24.84
2022-07-29T11:13:57.012Z,24.92
2022-07-29T11:16:25.087Z,25.08
2022-07-29T11:19:14.147Z,25.25
2022-07-29T11:21:54.114Z,25.36
2022-07-29T11:24:31.854Z,25.53
2022-07-29T11:27:18.417Z,25.66
2022-07-29T11:29:55.535Z,25.66
2022-07-29T11:32:24.188Z,25.73
2022-07-29T11:35:37.065Z,25.83
2022-07-29T11:38:23.482Z,25.97
2022-07-29T11:41:18.875Z,26.08
2022-07-29T11:43:50.876Z,25.89
2022-07-29T11:46:39.138Z,25.61
2022-07-29T11:49:09.225Z,25.46
2022-07-29T11:51:37.984Z,25.51
2022-07-29T11:54:27.624Z,25.64
2022-07-29T11:56:54.891Z,25.78
2022-07-29T11:59:22.294Z,25.85
2022-07-29T12:02:18.039Z,26.07
2022-07-29T12:04:55.261Z,26.26
2022-07-29T12:07:32.669Z,26.37
2022-07-29T12:10:02.811Z,26.32
2022-07-29T12:12:29.388Z,26.22
2022-07-29T12:14:56.347Z,26.05
2022-07-29T12:17:41.658Z,25.93
2022-07-29T12:20:08.894Z,25.99
2022-07-29T12:22:41.279Z,25.93
2022-07-29T12:25:32.375Z,25.91
2022-07-29T12:28:06.179Z,26.17
2022-07-29T12:30:39.904Z,26.37
2022-07-29T12:33:20.286Z,26.51
2022-07-29T12:36:03.446Z,26.61
2022-07-29T12:38:33.925Z,26.79
2022-07-29T12:41:00.498Z,26.99
2022-07-29T12:43:27.500Z,27.05
2022-07-29T12:45:56.321Z,27.17
2022-07-29T12:48:41.441Z,27.22
2022-07-29T12:51:09.707Z,27.25
2022-07-29T12:53:36.864Z,27.19
2022-07-29T12:56:15.509Z,27.10
2022-07-29T12:58:51.582Z,27.06
2022-07-29T13:01:20.273Z,27.16
2022-07-29T13:04:05.063Z,27.22
2022-07-29T13:06:45.739Z,27.22
2022-07-29T13:09:19.018Z,27.15
2022-07-29T13:11:50.625Z,27.12
2022-07-29T13:14:35.927Z,27.14
2022-07-29T13:17:08.536Z,27.04
2022-07-29T13:19:41.471Z,26.97
2022-07-29T13:22:09.308Z,26.81
2022-07-29T13:24:47.137Z,26.73
2022-07-29T13:27:16.265Z,26.53
2022-07-29T13:29:42.740Z,26.33
2022-07-29T13:32:09.410Z,26.26
2022-07-29T13:34:35.817Z,26.11
2022-07-29T13:37:02.210Z,25.86
2022-07-29T13:39:28.681Z,25.69
2022-07-29T13:41:56.328Z,25.54
2022-07-29T13:44:24.296Z,25.39
2022-07-29T13:46:50.950Z,25.16
2022-07-29T13:49:17.418Z,25.02
2022-07-29T13:51:44.119Z,24.94
2022-07-29T13:54:10.580Z,24.81
2022-07-29T13:56:36.974Z,24.57
2022-07-29T13:59:03.401Z,24.53
2022-07-29T14:01:31.284Z,24.44
2022-07-29T14:03:57.897Z,24.30
2022-07-29T14:06:24.616Z,24.10
2022-07-29T14:08:52.865Z,24.06
2022-07-29T14:11:19.283Z,24.11
2022-07-29T14:13:45.696Z,23.97
2022-07-29T14:16:12.402Z,23.86
2022-07-29T14:18:38.911Z,23.83
2022-07-29T14:21:05.381Z,23.88
2022-07-29T14:23:32.284Z,23.62
2022-07-29T14:25:58.794Z,23.61
2022-07-29T14:28:25.498Z,23.60
2022-07-29T14:30:52.074Z,23.55
2022-07-29T14:33:18.463Z,23.48
2022-07-29T14:35:45.395Z,23.52
2022-07-29T14:38:12.139Z,23.57
2022-07-29T14:40:38.934Z,23.61
2022-07-29T14:43:05.398Z,23.73
2022-07-29T14:45:32.391Z,23.79
2022-07-29T14:47:58.867Z,23.86
2022-07-29T14:50:32.047Z,23.83
2022-07-29T14:52:59.360Z,23.88
2022-07-29T14:55:25.991Z,23.93
2022-07-29T14:57:55.484Z,23.93
2022-07-29T15:00:27.379Z,23.93
2022-07-29T15:03:02.012Z,23.97
2022-07-29T15:05:29.827Z,24.01
2022-07-29T15:07:56.322Z,23.99
2022-07-29T15:10:22.728Z,23.98
2022-07-29T15:12:51.265Z,23.95
2022-07-29T15:15:17.706Z,23.96
2022-07-29T15:17:44.115Z,23.92
2022-07-29T15:20:12.056Z,23.93
2022-07-29T15:22:39.053Z,23.95
2022-07-29T15:25:06.440Z,23.97
2022-07-29T15:27:32.864Z,23.95
2022-07-29T15:29:59.298Z,24.01
2022-07-29T15:32:25.782Z,24.03
2022-07-29T15:34:52.166Z,24.09
2022-07-29T15:37:18.602Z,24.13
2022-07-29T15:39:45.006Z,24.20
2022-07-29T15:42:11.407Z,24.24
2022-07-29T15:44:37.783Z,24.28
2022-07-29T15:47:04.391Z,24.31
2022-07-29T15:49:48.056Z,24.36
2022-07-29T15:52:25.896Z,24.38
2022-07-29T15:54:57.512Z,24.37
2022-07-29T15:57:25.059Z,24.35
2022-07-29T15:59:51.939Z,24.33
2022-07-29T16:02:18.397Z,24.29
2022-07-29T16:04:45.008Z,24.25
2022-07-29T16:07:11.614Z,24.23
2022-07-29T16:09:38.177Z,24.21
2022-07-29T16:12:14.835Z,24.18
2022-07-29T16:14:45.163Z,24.13
2022-07-29T16:17:14.427Z,24.09
2022-07-29T16:19:42.010Z,24.04
2022-07-29T16:22:08.438Z,24.02
2022-07-29T16:24:34.883Z,24.00
2022-07-29T16:27:01.850Z,23.99
2022-07-29T16:29:29.015Z,23.96
2022-07-29T16:31:55.582Z,23.95
2022-07-29T16:34:22.008Z,23.89
2022-07-29T16:36:48.416Z,23.85
2022-07-29T16:39:14.865Z,23.82
2022-07-29T16:41:42.207Z,23.79
2022-07-29T16:44:08.628Z,23.77
2022-07-29T16:46:37.405Z,23.75
2022-07-29T16:49:05.654Z,23.71
2022-07-29T16:51:32.582Z,23.66
2022-07-29T16:53:59.084Z,23.64
2022-07-29T16:56:25.612Z,23.59
2022-07-29T16:58:52.041Z,23.49
2022-07-29T17:01:18.597Z,23.42
2022-07-29T17:04:06.250Z,23.22
2022-07-29T17:06:38.496Z,23.09
2022-07-29T17:09:06.816Z,22.80
2022-07-29T17:11:52.453Z,22.70
2022-07-29T17:14:25.365Z,22.46
2022-07-29T17:17:00.534Z,22.26
2022-07-29T17:19:31.571Z,22.11
2022-07-29T17:22:05.055Z,22.03
2022-07-29T17:24:35.704Z,21.86
2022-07-29T17:27:02.149Z,22.02
2022-07-29T17:29:28.596Z,22.02
2022-07-29T17:31:55.266Z,22.02
2022-07-29T17:34:21.665Z,22.07
2022-07-29T17:36:48.230Z,22.01
2022-07-29T17:39:14.666Z,21.90
2022-07-29T17:41:41.206Z,21.85
2022-07-29T17:44:09.291Z,21.78
2022-07-29T17:46:35.896Z,21.76
2022-07-29T17:49:02.701Z,21.66
2022-07-29T17:51:29.165Z,21.61
2022-07-29T17:53:55.704Z,21.60
2022-07-29T17:56:22.441Z,21.57
2022-07-29T17:58:48.901Z,21.58
2022-07-29T18:01:16.070Z,21.53
2022-07-29T18:03:43.132Z,21.63
2022-07-29T18:06:10.505Z,21.63
2022-07-29T18:08:37.676Z,21.61
2022-07-29T18:11:04.109Z,21.53
2022-07-29T18:13:32.287Z,21.51
2022-07-29T18:16:00.609Z,21.46
2022-07-29T18:18:27.779Z,21.41
2022-07-29T18:20:54.496Z,21.37
2022-07-29T18:23:21.185Z,21.32
2022-07-29T18:25:47.599Z,21.30
2022-07-29T18:28:14.100Z,21.23
2022-07-29T18:30:40.572Z,21.17
2022-07-29T18:33:21.752Z,21.21
2022-07-29T18:35:50.438Z,21.12
2022-07-29T18:38:17.393Z,21.12
2022-07-29T18:40:45.438Z,21.16
2022-07-29T18:43:12.541Z,21.04
2022-07-29T18:45:39.568Z,20.98
2022-07-29T18:48:08.357Z,21.00
2022-07-29T18:50:39.523Z,20.94
2022-07-29T18:53:06.046Z,20.94
2022-07-29T18:55:32.762Z,20.92
2022-07-29T18:57:59.344Z,20.89
2022-07-29T19:00:26.463Z,20.87
2022-07-29T19:02:53.369Z,20.83
2022-07-29T19:05:20.408Z,20.82
2022-07-29T19:07:46.870Z,20.81
2022-07-29T19:10:13.593Z,20.81
2022-07-29T19:12:40.173Z,20.73
2022-07-29T19:15:07.988Z,20.72
2022-07-29T19:17:34.492Z,20.72
2022-07-29T19:20:02.037Z,20.67
2022-07-29T19:22:28.504Z,20.68
2022-07-29T19:24:54.894Z,20.59
2022-07-29T19:27:21.327Z,20.64
2022-07-29T19:29:48.321Z,20.63
2022-07-29T19:32:24.873Z,20.62
2022-07-29T19:35:10.419Z,20.63
2022-07-29T19:37:37.326Z,20.60
2022-07-29T19:40:05.395Z,20.57
2022-07-29T19:42:31.893Z,20.54
2022-07-29T19:44:58.326Z,20.58
2022-07-29T19:47:25.128Z,20.55
2022-07-29T19:49:51.771Z,20.57
2022-07-29T19:52:18.255Z,20.50
2022-07-29T19:54:44.761Z,20.47
2022-07-29T19:57:11.301Z,20.45
2022-07-29T19:59:38.229Z,20.55
2022-07-29T20:02:04.967Z,20.55
2022-07-29T20:04:31.564Z,20.63
2022-07-29T20:07:01.353Z,20.56
2022-07-29T20:09:28.304Z,20.64
2022-07-29T20:11:55.033Z,20.57
2022-07-29T20:14:21.860Z,20.53
2022-07-29T20:16:49.026Z,20.49
2022-07-29T20:19:15.554Z,20.45
2022-07-29T20:21:41.942Z,20.41
2022-07-29T20:24:08.727Z,20.45
2022-07-29T20:26:35.411Z,20.43
2022-07-29T20:29:05.013Z,20.33
2022-07-29T20:31:34.839Z,20.34
2022-07-29T20:34:01.916Z,20.35
2022-07-29T20:36:28.933Z,20.32
2022-07-29T20:38:56.148Z,20.29
2022-07-29T20:41:22.895Z,20.29
2022-07-29T20:43:52.702Z,20.25
2022-07-29T20:46:19.181Z,20.32
2022-07-29T20:48:46.820Z,20.34
2022-07-29T20:51:14.120Z,20.35
2022-07-29T20:53:41.402Z,20.30
2022-07-29T20:56:08.001Z,20.33
2022-07-29T20:58:36.018Z,20.31
2022-07-29T21:01:02.979Z,20.35
2022-07-29T21:03:29.498Z,20.36
2022-07-29T21:05:56.364Z,20.32
2022-07-29T21:08:23.015Z,20.32
2022-07-29T21:10:49.417Z,20.28
2022-07-29T21:13:16.574Z,20.23
2022-07-29T21:15:46.075Z,20.30
2022-07-29T21:18:27.939Z,20.29
2022-07-29T21:20:55.022Z,20.27
2022-07-29T21:23:21.626Z,20.28
2022-07-29T21:25:48.070Z,20.23
2022-07-29T21:28:26.474Z,20.14
2022-07-29T21:30:54.777Z,20.08
2022-07-29T21:33:21.431Z,20.05
2022-07-29T21:38:35.099Z,20.10
2022-07-29T21:41:02.273Z,20.03
2022-07-29T21:43:28.864Z,20.02
2022-07-29T21:45:56.148Z,20.04
2022-07-29T21:48:23.978Z,20.07
2022-07-29T21:50:51.028Z,20.03
2022-07-29T21:53:18.473Z,20.06
2022-07-29T21:55:50.528Z,19.94
2022-07-29T21:58:17.684Z,19.85
2022-07-29T22:00:44.979Z,19.84
2022-07-29T22:03:11.383Z,19.76
2022-07-29T22:05:37.830Z,19.79
2022-07-29T22:08:04.746Z,19.71
2022-07-29T22:10:31.428Z,19.60
2022-07-29T22:12:59.093Z,19.56
2022-07-29T22:15:25.945Z,19.50
2022-07-29T22:17:53.071Z,19.48
2022-07-29T22:20:20.082Z,19.49
2022-07-29T22:22:46.902Z,19.42
2022-07-29T22:25:13.399Z,19.39
2022-07-29T22:27:40.145Z,19.29
2022-07-29T22:30:07.927Z,19.25
2022-07-29T22:32:34.547Z,19.32
2022-07-29T22:35:00.966Z,19.26
2022-07-29T22:37:27.408Z,19.17
2022-07-29T22:39:53.861Z,19.13
2022-07-29T22:42:21.011Z,19.23
2022-07-29T22:44:47.431Z,19.10
2022-07-29T22:47:13.852Z,19.12
2022-07-29T22:49:40.245Z,19.18
2022-07-29T22:52:06.669Z,19.24
2022-07-29T22:54:33.070Z,19.24
2022-07-29T22:57:01.018Z,19.18
2022-07-29T22:59:27.575Z,19.17
2022-07-29T23:01:54.398Z,19.17
2022-07-29T23:04:23.612Z,19.16
2022-07-29T23:06:51.093Z,19.12
2022-07-29T23:09:17.576Z,19.08
2022-07-29T23:11:44.059Z,19.11
2022-07-29T23:14:10.446Z,18.98
2022-07-29T23:16:37.111Z,18.99
2022-07-29T23:19:03.590Z,18.95
2022-07-29T23:21:30.032Z,18.85
2022-07-29T23:23:56.443Z,18.86
2022-07-29T23:26:22.841Z,18.61
2022-07-29T23:28:49.256Z,18.70
2022-07-29T23:31:15.900Z,18.76
2022-07-29T23:33:42.332Z,18.78
2022-07-29T23:36:08.749Z,18.75
2022-07-29T23:38:35.181Z,18.60
2022-07-29T23:41:02.243Z,18.63
2022-07-29T23:43:28.874Z,18.77
2022-07-29T23:45:55.971Z,18.80
2022-07-29T23:48:24.787Z,18.65
2022-07-29T23:50:51.202Z,18.66
2022-07-29T23:53:17.687Z,18.69
2022-07-29T23:55:44.155Z,18.62
2022-07-29T23:58:10.744Z,18.66
